createdAt,value
2019-03-18T00:01:32.933Z,14.05
2019-03-18T00:04:00.841Z,14.33
2019-03-18T00:06:28.920Z,14.10
2019-03-18T00:08:57.460Z,13.83
2019-03-18T00:11:25.374Z,14.40
2019-03-18T00:13:53.569Z,14.30
2019-03-18T00:16:21.537Z,16.50
2019-03-18T00:18:49.478Z,14.83
2019-03-18T00:21:17.399Z,14.55
2019-03-18T00:23:45.331Z,14.55
2019-03-18T00:26:13.343Z,14.10
2019-03-18T00:28:41.204Z,13.60
2019-03-18T00:31:11.126Z,14.05
2019-03-18T00:33:38.753Z,15.35
2019-03-18T00:36:07.942Z,14.75
2019-03-18T00:38:38.238Z,15.13
2019-03-18T00:41:06.137Z,14.15
2019-03-18T00:43:34.430Z,14.13
2019-03-18T00:46:03.486Z,14.35
2019-03-18T00:48:33.473Z,14.15
2019-03-18T00:51:01.325Z,14.63
2019-03-18T00:53:29.271Z,15.98
2019-03-18T00:55:57.210Z,15.38
2019-03-18T00:58:25.483Z,15.10
2019-03-18T01:00:53.381Z,13.50
2019-03-18T01:03:24.453Z,14.20
2019-03-18T01:05:52.363Z,16.85
2019-03-18T01:08:20.650Z,14.43
2019-03-18T01:10:50.074Z,14.38
2019-03-18T01:13:18.009Z,13.70
2019-03-18T01:15:45.880Z,13.48
2019-03-18T01:18:14.141Z,15.38
2019-03-18T01:20:45.141Z,15.20
2019-03-18T01:23:13.027Z,15.10
2019-03-18T01:25:41.953Z,15.15
2019-03-18T01:28:09.833Z,14.07
2019-03-18T01:30:37.782Z,15.28
2019-03-18T01:33:05.758Z,15.10
2019-03-18T01:35:33.623Z,14.68
2019-03-18T01:38:01.593Z,13.72
2019-03-18T01:40:29.446Z,14.35
2019-03-18T01:42:57.346Z,13.98
2019-03-18T01:45:25.241Z,14.93
2019-03-18T01:47:54.257Z,14.68
2019-03-18T01:50:22.164Z,15.48
2019-03-18T01:52:51.120Z,13.25
2019-03-18T01:55:19.110Z,17.70
2019-03-18T01:57:46.973Z,14.20
2019-03-18T02:00:15.127Z,14.75
2019-03-18T02:02:44.321Z,14.45
2019-03-18T02:05:12.305Z,13.50
2019-03-18T02:07:43.225Z,14.60
2019-03-18T02:10:11.583Z,13.35
2019-03-18T02:12:39.884Z,14.50
2019-03-18T02:15:08.506Z,13.70
2019-03-18T02:17:36.427Z,15.23
2019-03-18T02:20:04.562Z,16.50
2019-03-18T02:22:34.765Z,15.10
2019-03-18T02:25:02.654Z,15.70
2019-03-18T02:27:30.882Z,14.30
2019-03-18T02:29:58.785Z,15.25
2019-03-18T02:32:26.717Z,16.50
2019-03-18T02:34:54.614Z,16.52
2019-03-18T02:37:22.580Z,16.30
2019-03-18T02:39:51.915Z,17.32
2019-03-18T02:42:19.802Z,17.48
2019-03-18T02:44:47.791Z,17.35
2019-03-18T02:47:15.759Z,16.07
2019-03-18T02:49:44.907Z,15.60
2019-03-18T02:52:13.183Z,17.45
2019-03-18T02:54:43.420Z,17.27
2019-03-18T02:57:11.301Z,18.10
2019-03-18T02:59:39.147Z,16.97
2019-03-18T03:02:09.337Z,17.55
2019-03-18T03:04:37.298Z,18.80
2019-03-18T03:07:05.277Z,17.02
2019-03-18T03:09:33.313Z,17.95
2019-03-18T03:12:01.304Z,18.30
2019-03-18T03:14:30.447Z,17.80
2019-03-18T03:16:59.029Z,16.97
2019-03-18T03:19:29.290Z,18.75
2019-03-18T03:21:57.757Z,18.98
2019-03-18T03:24:25.678Z,18.75
2019-03-18T03:26:53.585Z,18.67
2019-03-18T03:29:24.905Z,21.10
2019-03-18T03:31:54.268Z,19.70
2019-03-18T03:34:22.112Z,20.92
2019-03-18T03:36:51.272Z,22.80
2019-03-18T03:39:19.551Z,23.52
2019-03-18T03:41:49.659Z,22.98
2019-03-18T03:44:22.201Z,21.75
2019-03-18T03:46:50.072Z,20.70
2019-03-18T03:49:18.026Z,21.87
2019-03-18T03:51:47.273Z,20.43
2019-03-18T03:54:15.888Z,22.58
2019-03-18T03:56:43.786Z,22.13
2019-03-18T03:59:11.650Z,21.20
2019-03-18T04:01:44.318Z,22.58
2019-03-18T04:04:12.303Z,21.12
2019-03-18T04:06:40.186Z,24.92
2019-03-18T04:09:10.579Z,21.82
2019-03-18T04:11:39.618Z,19.80
2019-03-18T04:14:07.784Z,20.72
2019-03-18T04:16:37.739Z,21.85
2019-03-18T04:19:05.706Z,23.42
2019-03-18T04:21:33.571Z,22.30
2019-03-18T04:24:05.540Z,22.70
2019-03-18T04:26:33.424Z,21.73
2019-03-18T04:29:01.319Z,24.37
2019-03-18T04:31:31.174Z,22.70
2019-03-18T04:33:59.696Z,22.05
2019-03-18T04:36:30.258Z,21.40
2019-03-18T04:38:58.125Z,21.00
2019-03-18T04:41:27.168Z,21.48
2019-03-18T04:43:56.676Z,23.77
2019-03-18T04:46:25.631Z,22.73
2019-03-18T04:48:56.257Z,24.60
2019-03-18T04:51:24.237Z,22.85
2019-03-18T04:53:52.279Z,22.30
2019-03-18T04:56:20.247Z,20.57
2019-03-18T04:58:48.106Z,21.95
2019-03-18T05:01:16.008Z,24.12
2019-03-18T05:03:44.425Z,24.60
2019-03-18T05:06:12.381Z,23.98
2019-03-18T05:08:43.095Z,24.65
2019-03-18T05:11:12.143Z,21.35
2019-03-18T05:13:40.156Z,24.18
2019-03-18T05:16:08.390Z,22.10
2019-03-18T05:18:36.771Z,23.40
2019-03-18T05:21:06.014Z,22.75
2019-03-18T05:23:33.909Z,23.83
2019-03-18T05:26:02.077Z,22.93
2019-03-18T05:28:30.098Z,25.45
2019-03-18T05:30:58.031Z,22.13
2019-03-18T05:33:25.911Z,23.77
2019-03-18T05:35:56.083Z,23.92
2019-03-18T05:38:24.029Z,24.35
2019-03-18T05:40:52.021Z,23.32
2019-03-18T05:43:19.920Z,28.80
2019-03-18T05:45:47.799Z,28.92
2019-03-18T05:48:15.664Z,28.52
2019-03-18T05:50:43.486Z,25.95
2019-03-18T05:53:11.406Z,24.07
2019-03-18T05:55:40.455Z,21.90
2019-03-18T05:58:08.728Z,24.18
2019-03-18T06:00:37.818Z,21.25
2019-03-18T06:03:07.775Z,25.17
2019-03-18T06:05:35.696Z,23.30
2019-03-18T06:08:03.608Z,25.45
2019-03-18T06:10:31.942Z,31.20
2019-03-18T06:13:00.281Z,25.75
2019-03-18T06:15:28.153Z,30.52
2019-03-18T06:17:56.081Z,31.68
2019-03-18T06:20:24.069Z,28.87
2019-03-18T06:22:51.929Z,27.32
2019-03-18T06:25:19.770Z,28.30
2019-03-18T06:27:47.667Z,27.20
2019-03-18T06:30:15.768Z,26.95
2019-03-18T06:32:43.617Z,27.10
2019-03-18T06:35:11.456Z,26.48
2019-03-18T06:37:39.285Z,26.25
2019-03-18T06:40:07.672Z,26.45
2019-03-18T06:42:35.577Z,28.92
2019-03-18T06:45:03.782Z,27.75
2019-03-18T06:47:31.659Z,25.65
2019-03-18T06:49:59.524Z,28.30
2019-03-18T06:52:27.333Z,26.60
2019-03-18T06:54:55.234Z,25.97
2019-03-18T06:57:23.136Z,24.90
2019-03-18T06:59:51.023Z,25.70
2019-03-18T07:02:19.099Z,28.67
2019-03-18T07:04:46.990Z,26.02
2019-03-18T07:07:14.814Z,24.27
2019-03-18T07:09:42.661Z,24.15
2019-03-18T07:12:10.500Z,29.23
2019-03-18T07:14:38.340Z,25.08
2019-03-18T07:17:06.448Z,25.48
2019-03-18T07:19:34.249Z,21.77
2019-03-18T07:22:02.071Z,22.87
2019-03-18T07:24:29.912Z,21.02
2019-03-18T07:26:57.761Z,22.60
2019-03-18T07:29:26.513Z,21.37
2019-03-18T07:31:54.361Z,24.77
2019-03-18T07:34:22.157Z,23.57
2019-03-18T07:36:50.031Z,28.02
2019-03-18T07:39:17.855Z,22.32
2019-03-18T07:41:45.693Z,25.10
2019-03-18T07:44:13.509Z,23.50
2019-03-18T07:46:41.348Z,23.57
2019-03-18T07:49:09.216Z,20.97
2019-03-18T07:51:37.071Z,20.48
2019-03-18T07:54:04.911Z,23.83
2019-03-18T07:56:32.745Z,20.52
2019-03-18T07:59:00.551Z,19.00
2019-03-18T08:01:28.442Z,21.87
2019-03-18T08:03:56.298Z,20.55
2019-03-18T08:06:24.162Z,20.20
2019-03-18T08:08:53.462Z,20.57
2019-03-18T08:11:21.606Z,19.70
2019-03-18T08:13:49.453Z,22.07
2019-03-18T08:16:17.324Z,20.17
2019-03-18T08:18:45.161Z,19.50
2019-03-18T08:21:12.997Z,22.20
2019-03-18T08:23:40.830Z,19.85
2019-03-18T08:26:08.733Z,20.57
2019-03-18T08:28:36.622Z,19.48
2019-03-18T08:31:04.461Z,19.98
2019-03-18T08:33:32.367Z,20.30
2019-03-18T08:36:00.184Z,19.30
2019-03-18T08:38:28.034Z,21.00
2019-03-18T08:40:55.846Z,21.02
2019-03-18T08:43:23.665Z,23.27
2019-03-18T08:45:51.490Z,22.13
2019-03-18T08:48:19.341Z,19.80
2019-03-18T08:50:47.142Z,19.45
2019-03-18T08:53:15.014Z,22.13
2019-03-18T08:55:42.835Z,21.12
2019-03-18T08:58:10.668Z,19.12
2019-03-18T09:00:38.512Z,20.52
2019-03-18T09:03:06.340Z,21.30
2019-03-18T09:05:34.210Z,21.37
2019-03-18T09:08:02.031Z,18.02
2019-03-18T09:10:29.893Z,24.60
2019-03-18T09:12:57.806Z,20.25
2019-03-18T09:15:25.724Z,23.05
2019-03-18T09:17:53.526Z,22.32
2019-03-18T09:20:21.450Z,16.77
2019-03-18T09:22:49.291Z,21.62
2019-03-18T09:25:17.183Z,18.95
2019-03-18T09:27:45.021Z,20.95
2019-03-18T09:30:12.922Z,20.15
2019-03-18T09:32:40.737Z,24.40
2019-03-18T09:35:08.635Z,24.67
2019-03-18T09:37:36.454Z,17.95
2019-03-18T09:40:04.905Z,19.65
2019-03-18T09:42:32.747Z,18.45
2019-03-18T09:45:00.590Z,19.27
2019-03-18T09:47:28.540Z,22.17
2019-03-18T09:49:56.410Z,25.35
2019-03-18T09:52:24.256Z,23.42
2019-03-18T09:54:52.119Z,18.60
2019-03-18T09:57:26.001Z,20.08
2019-03-18T09:59:49.601Z,20.80
2019-03-18T10:02:17.480Z,20.77
2019-03-18T10:04:45.337Z,19.75
2019-03-18T10:07:13.169Z,14.35
2019-03-18T10:09:40.994Z,18.70
2019-03-18T10:12:08.862Z,27.70
2019-03-18T10:14:36.690Z,16.15
2019-03-18T10:17:09.669Z,19.05
2019-03-18T10:19:34.126Z,23.12
2019-03-18T10:22:02.003Z,17.60
2019-03-18T10:24:29.926Z,20.57
2019-03-18T10:26:57.779Z,18.35
2019-03-18T10:29:25.764Z,22.82
2019-03-18T10:31:53.640Z,21.15
2019-03-18T10:34:22.133Z,17.40
2019-03-18T10:36:50.007Z,21.85
2019-03-18T10:39:17.861Z,19.32
2019-03-18T10:41:49.119Z,20.35
2019-03-18T10:44:26.017Z,18.55
2019-03-18T10:46:53.872Z,17.80
2019-03-18T10:49:21.962Z,18.98
2019-03-18T10:51:49.798Z,15.63
2019-03-18T10:54:29.981Z,18.92
2019-03-18T10:56:50.478Z,17.52
2019-03-18T10:59:18.296Z,15.23
2019-03-18T11:01:46.098Z,17.10
2019-03-18T11:04:22.046Z,19.10
2019-03-18T11:06:47.063Z,20.12
2019-03-18T11:09:14.959Z,19.82
2019-03-18T11:11:42.833Z,20.90
2019-03-18T11:14:14.706Z,17.77
2019-03-18T11:16:43.589Z,18.90
2019-03-18T11:19:11.446Z,16.48
2019-03-18T11:21:39.275Z,16.45
2019-03-18T11:24:07.154Z,19.55
2019-03-18T11:26:34.985Z,19.80
2019-03-18T11:29:05.655Z,18.32
2019-03-18T11:31:32.472Z,15.80
2019-03-18T11:34:01.050Z,13.85
2019-03-18T11:36:31.533Z,16.70
2019-03-18T11:38:58.393Z,16.17
2019-03-18T11:41:26.477Z,17.75
2019-03-18T11:43:54.375Z,14.47
2019-03-18T11:46:22.242Z,16.97
2019-03-18T11:48:50.071Z,16.85
2019-03-18T11:51:17.926Z,15.65
2019-03-18T11:53:45.762Z,14.90
2019-03-18T11:56:13.617Z,16.97
2019-03-18T11:58:41.442Z,15.25
2019-03-18T12:01:09.346Z,15.75
2019-03-18T12:03:37.178Z,17.98
2019-03-18T12:06:05.063Z,17.57
2019-03-18T12:08:32.880Z,18.02
2019-03-18T12:11:00.737Z,16.10
2019-03-18T12:13:28.859Z,17.77
2019-03-18T12:15:56.747Z,20.77
2019-03-18T12:18:24.610Z,17.32
2019-03-18T12:20:52.655Z,22.32
2019-03-18T12:23:20.589Z,16.57
2019-03-18T12:25:48.452Z,19.42
2019-03-18T12:28:16.436Z,17.87
2019-03-18T12:30:44.271Z,16.40
2019-03-18T12:33:12.272Z,14.70
2019-03-18T12:35:40.193Z,18.40
2019-03-18T12:38:08.088Z,16.35
2019-03-18T12:40:35.938Z,16.75
2019-03-18T12:43:03.820Z,18.95
2019-03-18T12:45:31.838Z,18.67
2019-03-18T12:47:59.669Z,18.27
2019-03-18T12:50:55.139Z,17.27
2019-03-18T12:52:57.088Z,15.70
2019-03-18T12:55:24.900Z,16.93
2019-03-18T12:57:52.815Z,17.50
2019-03-18T13:00:21.070Z,17.73
2019-03-18T13:02:54.691Z,20.80
2019-03-18T13:05:22.509Z,17.17
2019-03-18T13:07:50.385Z,18.90
2019-03-18T13:10:21.286Z,17.37
2019-03-18T13:12:47.840Z,15.90
2019-03-18T13:15:15.755Z,16.32
2019-03-18T13:17:43.928Z,18.52
2019-03-18T13:20:12.455Z,15.68
2019-03-18T13:22:40.368Z,15.78
2019-03-18T13:25:08.422Z,17.00
2019-03-18T13:27:36.513Z,17.70
2019-03-18T13:30:05.349Z,16.00
2019-03-18T13:32:33.238Z,18.30
2019-03-18T13:35:01.073Z,16.52
2019-03-18T13:37:28.921Z,16.73
2019-03-18T13:39:56.822Z,18.00
2019-03-18T13:42:24.710Z,19.00
2019-03-18T13:44:52.562Z,18.30
2019-03-18T13:47:20.402Z,18.45
2019-03-18T13:49:48.276Z,14.35
2019-03-18T13:52:16.178Z,17.32
2019-03-18T13:54:44.030Z,19.57
2019-03-18T13:57:11.854Z,15.38
2019-03-18T13:59:39.750Z,17.35
2019-03-18T14:02:07.635Z,17.60
2019-03-18T14:04:35.494Z,15.55
2019-03-18T14:07:03.312Z,17.80
2019-03-18T14:09:31.198Z,19.87
2019-03-18T14:11:59.025Z,15.90
2019-03-18T14:14:26.903Z,17.52
2019-03-18T14:16:54.807Z,17.42
2019-03-18T14:19:30.616Z,19.05
2019-03-18T14:21:58.450Z,19.23
2019-03-18T14:24:26.293Z,18.55
2019-03-18T14:26:54.146Z,17.75
2019-03-18T14:29:22.059Z,22.48
2019-03-18T14:31:49.914Z,16.30
2019-03-18T14:34:17.736Z,18.87
2019-03-18T14:36:45.589Z,17.10
2019-03-18T14:39:13.417Z,17.27
2019-03-18T14:41:41.617Z,16.30
2019-03-18T14:44:09.484Z,22.27
2019-03-18T14:46:37.357Z,17.60
2019-03-18T14:49:05.250Z,15.55
2019-03-18T14:51:45.146Z,17.12
2019-03-18T14:54:02.702Z,18.77
2019-03-18T14:56:30.640Z,15.83
2019-03-18T14:58:58.486Z,14.95
2019-03-18T15:01:26.350Z,17.35
2019-03-18T15:03:54.190Z,14.40
2019-03-18T15:06:22.057Z,14.80
2019-03-18T15:08:50.055Z,13.10
2019-03-18T15:11:17.900Z,16.48
2019-03-18T15:13:45.757Z,16.37
2019-03-18T15:16:13.783Z,15.80
2019-03-18T15:18:41.699Z,15.90
2019-03-18T15:21:09.582Z,14.65
2019-03-18T15:23:37.455Z,15.72
2019-03-18T15:26:05.448Z,16.25
2019-03-18T15:28:33.415Z,19.05
2019-03-18T15:31:01.246Z,15.85
2019-03-18T15:33:29.110Z,19.07
2019-03-18T15:35:56.968Z,15.45
2019-03-18T15:38:27.829Z,13.10
2019-03-18T15:40:55.730Z,16.45
2019-03-18T15:43:23.609Z,16.77
2019-03-18T15:45:51.482Z,15.35
2019-03-18T15:48:19.384Z,21.42
2019-03-18T15:50:47.633Z,16.48
2019-03-18T15:53:15.487Z,16.27
2019-03-18T15:55:43.344Z,17.25
2019-03-18T15:58:11.197Z,15.23
2019-03-18T16:00:39.042Z,14.63
2019-03-18T16:03:06.914Z,15.25
2019-03-18T16:05:34.783Z,19.27
2019-03-18T16:08:02.677Z,15.30
2019-03-18T16:10:30.590Z,15.85
2019-03-18T16:12:58.509Z,14.63
2019-03-18T16:15:26.375Z,17.25
2019-03-18T16:17:54.218Z,15.28
2019-03-18T16:20:22.108Z,15.93
2019-03-18T16:22:51.400Z,14.50
2019-03-18T16:25:19.461Z,15.80
2019-03-18T16:27:47.575Z,16.85
2019-03-18T16:30:16.013Z,18.25
2019-03-18T16:32:43.902Z,15.65
2019-03-18T16:35:15.969Z,14.73
2019-03-18T16:37:43.088Z,16.35
2019-03-18T16:40:11.300Z,16.45
2019-03-18T16:42:39.469Z,16.20
2019-03-18T16:45:07.986Z,15.78
2019-03-18T16:47:36.290Z,15.43
2019-03-18T16:50:04.837Z,13.40
2019-03-18T16:52:36.084Z,15.55
2019-03-18T16:55:02.345Z,16.32
2019-03-18T16:57:30.241Z,17.12
2019-03-18T16:59:58.151Z,14.33
2019-03-18T17:02:26.027Z,17.87
2019-03-18T17:04:53.904Z,15.63
2019-03-18T17:07:21.795Z,14.85
2019-03-18T17:09:49.624Z,14.68
2019-03-18T17:12:17.529Z,18.87
2019-03-18T17:14:45.418Z,15.60
2019-03-18T17:17:13.295Z,16.57
2019-03-18T17:19:41.158Z,18.55
2019-03-18T17:22:09.071Z,15.72
2019-03-18T17:24:36.954Z,16.02
2019-03-18T17:27:04.863Z,17.42
2019-03-18T17:29:32.864Z,17.98
2019-03-18T17:32:00.762Z,17.12
2019-03-18T17:34:28.579Z,17.32
2019-03-18T17:36:56.749Z,19.62
2019-03-18T17:39:24.582Z,16.10
2019-03-18T17:41:52.483Z,21.05
2019-03-18T17:44:20.367Z,19.10
2019-03-18T17:46:48.236Z,17.40
2019-03-18T17:49:16.137Z,18.62
2019-03-18T17:51:43.978Z,18.40
2019-03-18T17:54:11.876Z,16.55
2019-03-18T17:56:39.702Z,16.65
2019-03-18T17:59:07.614Z,19.87
2019-03-18T18:01:35.453Z,17.85
2019-03-18T18:04:03.342Z,15.28
2019-03-18T18:06:31.198Z,22.77
2019-03-18T18:08:59.139Z,24.20
2019-03-18T18:11:26.989Z,17.95
2019-03-18T18:13:54.858Z,17.60
2019-03-18T18:16:22.705Z,18.90
2019-03-18T18:18:50.642Z,20.77
2019-03-18T18:21:18.444Z,17.52
2019-03-18T18:23:46.297Z,17.87
2019-03-18T18:26:14.454Z,16.10
2019-03-18T18:28:42.446Z,20.27
2019-03-18T18:31:10.323Z,17.48
2019-03-18T18:33:38.224Z,19.73
2019-03-18T18:36:07.011Z,17.23
2019-03-18T18:38:35.696Z,16.52
2019-03-18T18:41:04.599Z,17.27
2019-03-18T18:43:33.226Z,17.25
2019-03-18T18:46:04.448Z,17.67
2019-03-18T18:48:33.149Z,16.27
2019-03-18T18:51:34.233Z,19.35
2019-03-18T18:54:03.012Z,17.95
2019-03-18T18:56:30.941Z,16.05
2019-03-18T18:58:58.888Z,17.75
2019-03-18T19:01:29.329Z,18.30
2019-03-18T19:03:57.617Z,15.50
2019-03-18T19:06:25.665Z,16.15
2019-03-18T19:08:53.922Z,16.05
2019-03-18T19:11:21.854Z,17.25
2019-03-18T19:13:49.763Z,15.70
2019-03-18T19:16:17.758Z,14.90
2019-03-18T19:18:47.971Z,16.00
2019-03-18T19:21:16.768Z,18.30
2019-03-18T19:23:44.663Z,17.82
2019-03-18T19:26:14.818Z,17.75
2019-03-18T19:28:42.711Z,15.40
2019-03-18T19:31:10.700Z,18.20
2019-03-18T19:33:39.730Z,18.62
2019-03-18T19:36:07.701Z,19.23
2019-03-18T19:38:35.614Z,17.82
2019-03-18T19:41:03.508Z,15.18
2019-03-18T19:43:31.520Z,19.27
2019-03-18T19:45:59.473Z,16.73
2019-03-18T19:48:28.526Z,21.02
2019-03-18T19:50:56.385Z,18.17
2019-03-18T19:53:25.506Z,17.27
2019-03-18T19:55:53.389Z,14.90
2019-03-18T19:58:21.352Z,17.50
2019-03-18T20:00:50.645Z,17.57
2019-03-18T20:03:18.571Z,19.30
2019-03-18T20:05:46.664Z,16.42
2019-03-18T20:08:15.093Z,21.73
2019-03-18T20:10:43.111Z,16.70
2019-03-18T20:13:11.176Z,19.10
2019-03-18T20:15:41.459Z,18.55
2019-03-18T20:18:09.433Z,17.35
2019-03-18T20:20:37.421Z,18.65
2019-03-18T20:23:07.015Z,20.23
2019-03-18T20:25:34.972Z,16.75
2019-03-18T20:28:02.977Z,17.90
2019-03-18T20:30:30.905Z,23.70
2019-03-18T20:32:58.866Z,23.45
2019-03-18T20:35:26.753Z,16.52
2019-03-18T20:37:54.647Z,15.95
2019-03-18T20:40:22.719Z,18.35
2019-03-18T20:42:50.727Z,16.32
2019-03-18T20:45:20.410Z,17.45
2019-03-18T20:47:48.982Z,22.77
2019-03-18T20:50:17.351Z,17.30
2019-03-18T20:52:45.250Z,25.52
2019-03-18T20:55:13.412Z,20.88
2019-03-18T20:57:43.463Z,19.60
2019-03-18T21:00:11.949Z,19.82
2019-03-18T21:02:39.910Z,21.07
2019-03-18T21:05:08.524Z,16.90
2019-03-18T21:07:36.393Z,18.70
2019-03-18T21:10:07.584Z,16.90
2019-03-18T21:12:35.659Z,17.70
2019-03-18T21:15:03.927Z,15.55
2019-03-18T21:17:31.862Z,17.27
2019-03-18T21:19:59.875Z,19.60
2019-03-18T21:22:27.839Z,21.35
2019-03-18T21:24:55.835Z,17.73
2019-03-18T21:27:25.234Z,18.50
2019-03-18T21:29:53.563Z,15.25
2019-03-18T21:32:22.649Z,18.70
2019-03-18T21:34:50.604Z,17.52
2019-03-18T21:37:18.640Z,16.20
2019-03-18T21:39:46.967Z,18.27
2019-03-18T21:42:15.713Z,17.62
2019-03-18T21:44:43.676Z,18.85
2019-03-18T21:47:11.927Z,20.37
2019-03-18T21:49:39.987Z,17.17
2019-03-18T21:52:09.148Z,18.27
2019-03-18T21:54:37.054Z,14.83
2019-03-18T21:57:04.990Z,17.87
2019-03-18T21:59:32.827Z,18.00
2019-03-18T22:02:00.865Z,18.98
2019-03-18T22:04:28.769Z,15.93
2019-03-18T22:06:57.026Z,19.98
2019-03-18T22:09:25.369Z,19.65
2019-03-18T22:11:56.544Z,16.75
2019-03-18T22:14:24.451Z,17.48
2019-03-18T22:16:52.320Z,20.48
2019-03-18T22:19:20.336Z,21.55
2019-03-18T22:21:48.402Z,18.57
2019-03-18T22:24:16.285Z,18.27
2019-03-18T22:26:44.202Z,15.98
2019-03-18T22:29:12.220Z,20.45
2019-03-18T22:31:40.186Z,18.42
2019-03-18T22:34:12.986Z,16.48
2019-03-18T22:36:40.944Z,17.82
2019-03-18T22:39:09.363Z,14.47
2019-03-18T22:41:37.292Z,19.70
2019-03-18T22:44:05.318Z,22.48
2019-03-18T22:46:33.229Z,16.77
2019-03-18T22:49:01.150Z,16.48
2019-03-18T22:51:28.485Z,16.55
2019-03-18T22:53:56.381Z,17.57
2019-03-18T22:56:24.292Z,15.70
2019-03-18T22:58:52.165Z,16.02
2019-03-18T23:01:22.204Z,13.60
2019-03-18T23:03:50.304Z,16.32
2019-03-18T23:06:20.554Z,17.98
2019-03-18T23:08:49.039Z,17.95
2019-03-18T23:11:16.953Z,16.17
2019-03-18T23:13:45.574Z,18.55
2019-03-18T23:16:13.467Z,16.70
2019-03-18T23:18:41.334Z,15.00
2019-03-18T23:21:09.240Z,18.65
2019-03-18T23:23:37.085Z,17.77
2019-03-18T23:26:05.505Z,18.50
2019-03-18T23:28:33.691Z,18.42
2019-03-18T23:31:01.630Z,17.45
2019-03-18T23:33:29.548Z,21.48
2019-03-18T23:35:57.478Z,19.62
2019-03-18T23:38:25.629Z,15.40
2019-03-18T23:40:53.486Z,21.33
2019-03-18T23:43:22.400Z,17.90
2019-03-18T23:45:50.288Z,15.93
2019-03-18T23:48:19.215Z,14.40
2019-03-18T23:50:47.203Z,17.07
2019-03-18T23:53:16.544Z,17.67
2019-03-18T23:55:44.454Z,17.85
2019-03-18T23:58:12.826Z,18.42
